createdAt,value
2022-12-23T00:05:40.299Z,80.31
2022-12-23T00:11:32.619Z,80.97
2022-12-23T00:17:24.750Z,80.90
2022-12-23T00:23:17.643Z,80.04
2022-12-23T00:29:10.006Z,79.71
2022-12-23T00:35:02.948Z,79.90
2022-12-23T00:41:13.924Z,80.16
2022-12-23T00:47:06.815Z,80.45
2022-12-23T00:52:59.714Z,79.86
2022-12-23T00:58:51.490Z,79.26
2022-12-23T01:05:02.647Z,78.55
2022-12-23T01:10:54.875Z,78.02
2022-12-23T01:16:47.222Z,77.70
2022-12-23T01:22:40.058Z,76.83
2022-12-23T01:28:33.569Z,76.44
2022-12-23T01:34:31.053Z,75.64
2022-12-23T01:40:26.997Z,76.14
2022-12-23T01:46:20.076Z,76.38
2022-12-23T01:52:14.544Z,77.10
2022-12-23T01:58:15.673Z,78.06
2022-12-23T02:04:11.714Z,78.07
2022-12-23T02:10:05.530Z,79.26
2022-12-23T02:16:18.266Z,79.44
2022-12-23T02:22:23.506Z,79.06
2022-12-23T02:28:21.552Z,79.33
2022-12-23T02:34:19.964Z,80.07
2022-12-23T02:40:47.601Z,80.50
2022-12-23T02:46:47.692Z,79.66
2022-12-23T02:52:43.916Z,80.53
2022-12-23T02:58:43.594Z,80.48
2022-12-23T03:04:35.662Z,79.64
2022-12-23T03:10:52.262Z,80.44
2022-12-23T03:17:09.140Z,80.57
2022-12-23T03:23:39.004Z,79.97
2022-12-23T03:29:53.915Z,80.27
2022-12-23T03:35:53.240Z,79.79
2022-12-23T03:41:56.671Z,78.79
2022-12-23T03:48:17.221Z,79.09
2022-12-23T03:54:17.861Z,79.00
2022-12-23T04:00:11.460Z,79.99
2022-12-23T04:06:10.815Z,79.40
2022-12-23T04:12:03.702Z,79.16
2022-12-23T04:17:57.791Z,78.52
2022-12-23T04:23:50.261Z,78.23
2022-12-23T04:29:42.946Z,77.75
2022-12-23T04:35:35.218Z,76.87
2022-12-23T04:41:27.334Z,76.51
2022-12-23T04:47:19.580Z,77.47
2022-12-23T04:53:12.393Z,77.08
2022-12-23T04:59:04.576Z,77.00
2022-12-23T05:04:58.450Z,75.94
2022-12-23T05:10:51.169Z,76.26
2022-12-23T05:16:43.611Z,76.50
2022-12-23T05:22:36.468Z,76.87
2022-12-23T05:28:28.610Z,79.05
2022-12-23T05:34:22.164Z,78.04
2022-12-23T05:40:18.490Z,78.15
2022-12-23T05:46:14.324Z,78.28
2022-12-23T05:52:06.553Z,77.82
2022-12-23T05:57:58.791Z,77.92
2022-12-23T06:03:52.682Z,77.44
2022-12-23T06:09:45.426Z,76.92
2022-12-23T06:15:37.276Z,77.01
2022-12-23T06:21:29.704Z,77.11
2022-12-23T06:27:22.621Z,77.05
2022-12-23T06:33:14.626Z,77.07
2022-12-23T06:39:06.715Z,77.36
2022-12-23T06:44:59.805Z,77.59
2022-12-23T06:50:52.926Z,77.52
2022-12-23T06:56:45.900Z,77.65
2022-12-23T07:02:39.950Z,77.46
2022-12-23T07:08:33.574Z,77.80
2022-12-23T07:14:25.920Z,78.01
2022-12-23T07:20:18.872Z,77.98
2022-12-23T07:26:11.822Z,78.34
2022-12-23T07:32:05.004Z,78.45
2022-12-23T07:37:57.864Z,78.02
2022-12-23T07:43:50.789Z,78.21
2022-12-23T07:49:42.511Z,77.53
2022-12-23T07:55:34.918Z,77.59
2022-12-23T08:01:27.813Z,77.11
2022-12-23T08:07:19.861Z,76.31
2022-12-23T08:13:11.948Z,74.66
2022-12-23T08:19:04.056Z,73.98
2022-12-23T08:24:57.023Z,74.21
2022-12-23T08:30:49.913Z,73.17
2022-12-23T08:36:43.023Z,73.60
2022-12-23T08:42:37.180Z,73.12
2022-12-23T08:48:30.174Z,72.79
2022-12-23T08:54:24.061Z,71.62
2022-12-23T09:00:17.462Z,71.96
2022-12-23T09:06:12.705Z,72.16
2022-12-23T09:12:07.572Z,71.03
2022-12-23T09:18:01.308Z,70.49
2022-12-23T09:23:54.299Z,70.61
2022-12-23T09:29:47.133Z,70.24
2022-12-23T09:35:39.261Z,69.69
2022-12-23T09:42:16.509Z,69.66
2022-12-23T09:48:16.083Z,69.48
2022-12-23T09:54:22.706Z,69.04
2022-12-23T10:00:20.180Z,68.84
2022-12-23T10:06:27.473Z,68.78
2022-12-23T10:12:40.546Z,68.95
2022-12-23T10:18:43.009Z,69.82
2022-12-23T10:24:41.695Z,69.18
2022-12-23T10:31:17.243Z,68.95
2022-12-23T10:37:00.868Z,68.81
2022-12-23T10:43:11.358Z,68.11
2022-12-23T10:49:32.287Z,67.14
2022-12-23T10:55:34.128Z,66.73
2022-12-23T11:01:29.401Z,66.54
2022-12-23T11:07:43.826Z,66.32
2022-12-23T11:13:44.444Z,65.55
2022-12-23T11:19:37.444Z,65.87
2022-12-23T11:25:36.745Z,65.60
2022-12-23T11:31:36.617Z,65.27
2022-12-23T11:37:47.561Z,64.45
2022-12-23T11:43:41.559Z,64.31
2022-12-23T11:49:34.622Z,64.13
2022-12-23T11:55:33.086Z,63.50
2022-12-23T12:01:26.201Z,62.93
2022-12-23T12:07:19.952Z,63.05
2022-12-23T12:13:24.824Z,63.19
2022-12-23T12:19:30.812Z,63.69
2022-12-23T12:25:37.921Z,63.81
2022-12-23T12:31:43.011Z,62.81
2022-12-23T12:37:37.802Z,62.46
2022-12-23T12:43:35.606Z,62.88
2022-12-23T12:49:48.711Z,63.27
2022-12-23T12:55:46.981Z,63.43
2022-12-23T13:01:54.535Z,64.26
2022-12-23T13:08:14.541Z,64.38
2022-12-23T13:14:25.224Z,64.80
2022-12-23T13:20:33.070Z,66.35
2022-12-23T13:26:54.736Z,66.55
2022-12-23T13:33:22.789Z,67.18
2022-12-23T13:39:40.612Z,67.37
2022-12-23T13:45:36.646Z,67.27
2022-12-23T13:52:08.020Z,66.94
2022-12-23T13:58:16.663Z,66.30
2022-12-23T14:04:36.736Z,65.09
2022-12-23T14:10:31.741Z,65.64
2022-12-23T14:16:52.574Z,65.90
2022-12-23T14:23:10.836Z,66.04
2022-12-23T14:29:24.240Z,66.66
2022-12-23T14:35:35.493Z,68.79
2022-12-23T14:41:39.671Z,70.26
2022-12-23T14:47:40.463Z,70.75
2022-12-23T14:53:36.191Z,70.97
2022-12-23T14:59:38.181Z,71.71
2022-12-23T15:05:31.510Z,71.64
2022-12-23T15:15:34.741Z,71.64
2022-12-23T15:21:31.480Z,71.69
2022-12-23T15:27:27.904Z,71.68
2022-12-23T15:34:01.534Z,72.00
2022-12-23T15:39:42.064Z,72.41
2022-12-23T15:45:42.449Z,73.16
2022-12-23T15:52:05.731Z,72.97
2022-12-23T15:57:52.433Z,73.94
2022-12-23T16:03:58.538Z,73.64
2022-12-23T16:09:54.639Z,73.83
2022-12-23T16:15:47.783Z,73.80
2022-12-23T16:21:41.481Z,73.21
2022-12-23T16:27:39.159Z,73.26
2022-12-23T16:33:46.607Z,73.53
2022-12-23T16:39:41.532Z,73.33
2022-12-23T16:45:36.824Z,73.99
2022-12-23T16:51:34.345Z,74.24
2022-12-23T16:57:26.641Z,73.53
2022-12-23T17:03:21.367Z,73.38
2022-12-23T17:09:13.952Z,74.00
2022-12-23T17:15:09.009Z,73.87
2022-12-23T17:21:01.895Z,73.85
2022-12-23T17:26:57.035Z,73.10
2022-12-23T17:32:56.344Z,73.58
2022-12-23T17:38:49.879Z,73.18
2022-12-23T17:44:43.173Z,73.54
2022-12-23T17:50:37.931Z,73.61
2022-12-23T17:56:31.833Z,73.87
2022-12-23T18:02:25.303Z,73.65
2022-12-23T18:08:20.812Z,74.25
2022-12-23T18:14:32.041Z,74.13
2022-12-23T18:20:25.320Z,74.72
2022-12-23T18:26:17.653Z,74.23
2022-12-23T18:32:28.220Z,74.34
2022-12-23T18:38:21.879Z,73.32
2022-12-23T18:44:20.880Z,74.36
2022-12-23T18:50:13.862Z,74.36
2022-12-23T18:56:05.957Z,74.26
2022-12-23T19:01:59.585Z,74.87
2022-12-23T19:07:55.257Z,75.13
2022-12-23T19:13:49.187Z,74.80
2022-12-23T19:19:42.231Z,76.11
2022-12-23T19:25:36.493Z,75.80
2022-12-23T19:31:30.099Z,76.37
2022-12-23T19:37:22.969Z,76.59
2022-12-23T19:43:15.042Z,77.21
2022-12-23T19:49:07.171Z,76.88
2022-12-23T19:55:00.088Z,77.11
2022-12-23T20:00:53.213Z,76.48
2022-12-23T20:06:46.169Z,76.96
2022-12-23T20:12:39.597Z,77.38
2022-12-23T20:18:32.591Z,76.83
2022-12-23T20:24:25.111Z,76.78
2022-12-23T20:30:17.380Z,76.78
2022-12-23T20:36:11.798Z,76.99
2022-12-23T20:42:04.358Z,76.84
2022-12-23T20:47:57.885Z,76.22
2022-12-23T20:53:55.345Z,76.64
2022-12-23T20:59:49.150Z,76.05
2022-12-23T21:05:42.626Z,76.47
2022-12-23T21:11:38.909Z,76.71
2022-12-23T21:17:31.557Z,76.70
2022-12-23T21:23:24.187Z,77.21
2022-12-23T21:29:16.397Z,77.49
2022-12-23T21:35:10.207Z,77.52
2022-12-23T21:41:04.402Z,78.01
2022-12-23T21:46:58.443Z,78.57
2022-12-23T21:52:51.547Z,79.25
2022-12-23T21:58:44.846Z,79.60
2022-12-23T22:04:37.451Z,79.97
2022-12-23T22:10:30.629Z,80.53
2022-12-23T22:16:26.331Z,80.42
